Huvudsida
METAR-TAF:

METAR-TAF

Flygplatser :

Chignik, Alaska, USA

latitud: 56-18-41N, longitud: 158-22-24W, höjd: 6 m

Aktuellt väderrapport

Denna rapport gjordes för 21 minuter sedan, klockan 23:06 UTC
Vind 9 kt från nordost i byarna ända upp till 15 kt
Temperatur 9°C
Fuktighet 93%
Tryck 1016 hPa
Sikt: 4.0 km
Mulet på en höjd av 1000 ft
lätt regn, fuktdis

METAR: PAJC 172306Z AUTO 05009G15KT 2 1/2SM -RA BR OVC010 09/08 A2999 RMK AO2 VIS 2V4 CIG 007V014 P0000 $

Tid: 15:27 (23:27 UTC)


TAF: saknas

Aktuella väderrapporter och prognoser från 4000 flygplatser (METAR- och TAF-rapporter).

De tillgängliga stationerna syns som gula och röda prickar på kartan.

För musen över prickarna för att se namnen på stationerna.

Klicka sedan för att få väderrapporter och prognoser.

För att ändra kartan: Klicka på de gröna knapparna med ett svart kors på för att zooma in; den gröna knappen med ett streck på för att zooma ut; eller på de gröna pilarna för angränsande kartor.


METAR-TAF: